Terminal Aerodrome Forecast
Issued by NWS Duluth, MN

Home | Current Version | Previous Version | Text Only | Print | Product List | Glossary On
Versions: 1 2 3 4 5 6 7 8 9 10 11 12 13
000
FTUS43 KDLH 281100
TAFDLH
TAF
KDLH 281136Z 2812/2912 32004KT P6SM SCT090 BKN250 WS010/18030KT
     FM281300 32008KT P6SM VCSH OVC080
     FM281800 35008KT P6SM OVC050
     FM282200 34008KT P6SM SCT050
     FM290900 36004KT P6SM SKC=

USA.gov is the U.S. government's official web portal to all federal, state and local government web resources and services.